createdAt,value
2023-02-13T00:25:04.000Z,0.18
2023-02-13T00:55:06.429Z,0.24
2023-02-13T01:25:09.451Z,0.17
2023-02-13T01:55:13.000Z,0.22
2023-02-13T02:25:19.000Z,0.26
2023-02-13T02:55:22.000Z,0.19
2023-02-13T03:25:30.301Z,0.14
2023-02-13T03:55:33.000Z,0.35
2023-02-13T04:25:39.128Z,0.08
2023-02-13T04:55:45.000Z,0.19
2023-02-13T05:25:48.139Z,0.22
2023-02-13T05:55:54.000Z,0.17
2023-02-13T06:25:59.154Z,0.08
2023-02-13T06:56:02.000Z,0.33
2023-02-13T07:26:06.949Z,0.15
2023-02-13T07:56:11.000Z,0.05
2023-02-13T08:26:11.000Z,0.2
2023-02-13T08:56:17.000Z,0.42
2023-02-13T09:26:22.000Z,0.74
2023-02-13T09:56:27.000Z,0.93
2023-02-13T10:26:30.000Z,0.91
2023-02-13T10:56:35.324Z,0.46
2023-02-13T11:26:37.000Z,0.5
2023-02-13T11:56:43.367Z,0.08
2023-02-13T12:26:46.394Z,0.34
2023-02-13T12:56:53.330Z,1.04
2023-02-13T13:27:00.391Z,0.71
2023-02-13T13:57:04.288Z,0.48
2023-02-13T14:27:13.285Z,0.56
2023-02-13T14:57:15.306Z,0.37
2023-02-13T15:27:16.386Z,0.34
2023-02-13T15:57:24.288Z,0.47
2023-02-13T16:27:30.302Z,0.14
2023-02-13T16:57:37.156Z,0.08
2023-02-13T17:27:38.184Z,0.24
2023-02-13T17:57:39.274Z,0.19
2023-02-13T18:27:45.078Z,0.13
2023-02-13T18:57:47.053Z,0.13
2023-02-13T19:27:55.101Z,0.11
2023-02-13T19:57:57.981Z,0.05
2023-02-13T20:28:00.981Z,0.22
2023-02-13T20:58:04.918Z,0.15
2023-02-13T21:28:08.884Z,0.14
2023-02-13T21:58:14.912Z,0.11
2023-02-13T22:28:21.261Z,0.18
2023-02-13T22:58:26.294Z,0.1
2023-02-13T23:28:33.182Z,0.03
2023-02-13T23:58:36.255Z,0.02
